sensor_id;sensor_type;location;lat;lon;timestamp;temperature;humidity
68746;SHT31;66104;45.456;11.064;2023-03-20T11:08:07;17.72;50.67
68746;SHT31;66104;45.456;11.064;2023-03-20T11:10:45;17.84;50.94
68746;SHT31;66104;45.456;11.064;2023-03-20T11:13:34;17.95;50.58
68746;SHT31;66104;45.456;11.064;2023-03-20T11:16:20;17.99;49.94
68746;SHT31;66104;45.456;11.064;2023-03-20T11:19:05;18.01;49.76
68746;SHT31;66104;45.456;11.064;2023-03-20T11:21:46;17.97;49.62
68746;SHT31;66104;45.456;11.064;2023-03-20T11:24:32;17.95;49.50
68746;SHT31;66104;45.456;11.064;2023-03-20T11:27:17;17.89;49.49
68746;SHT31;66104;45.456;11.064;2023-03-20T11:29:59;17.83;49.30
68746;SHT31;66104;45.456;11.064;2023-03-20T11:32:46;17.81;49.26
68746;SHT31;66104;45.456;11.064;2023-03-20T11:35:30;17.88;49.20
68746;SHT31;66104;45.456;11.064;2023-03-20T11:38:12;17.89;49.03
68746;SHT31;66104;45.456;11.064;2023-03-20T11:40:51;17.86;48.87
68746;SHT31;66104;45.456;11.064;2023-03-20T11:43:27;17.83;49.14
68746;SHT31;66104;45.456;11.064;2023-03-20T11:46:12;17.92;49.27
68746;SHT31;66104;45.456;11.064;2023-03-20T11:49:01;17.98;49.04
68746;SHT31;66104;45.456;11.064;2023-03-20T11:51:49;18.00;48.68
68746;SHT31;66104;45.456;11.064;2023-03-20T11:54:31;17.96;49.05
68746;SHT31;66104;45.456;11.064;2023-03-20T11:57:27;18.04;48.82
68746;SHT31;66104;45.456;11.064;2023-03-20T12:00:16;18.16;48.74
68746;SHT31;66104;45.456;11.064;2023-03-20T12:02:57;18.27;47.83
68746;SHT31;66104;45.456;11.064;2023-03-20T12:05:35;18.30;47.96
68746;SHT31;66104;45.456;11.064;2023-03-20T12:08:14;18.40;47.53
68746;SHT31;66104;45.456;11.064;2023-03-20T12:10:58;18.47;47.07
68746;SHT31;66104;45.456;11.064;2023-03-20T12:13:49;18.57;46.88
68746;SHT31;66104;45.456;11.064;2023-03-20T12:16:30;18.64;46.74
68746;SHT31;66104;45.456;11.064;2023-03-20T12:19:10;18.75;46.91
68746;SHT31;66104;45.456;11.064;2023-03-20T12:21:55;18.88;46.01
68746;SHT31;66104;45.456;11.064;2023-03-20T12:24:48;18.95;45.68
68746;SHT31;66104;45.456;11.064;2023-03-20T12:27:34;18.98;45.81
68746;SHT31;66104;45.456;11.064;2023-03-20T12:30:21;19.04;45.71
68746;SHT31;66104;45.456;11.064;2023-03-20T12:33:11;19.06;45.71
68746;SHT31;66104;45.456;11.064;2023-03-20T12:35:56;19.11;45.58
68746;SHT31;66104;45.456;11.064;2023-03-20T12:38:35;19.15;45.25
68746;SHT31;66104;45.456;11.064;2023-03-20T12:41:16;19.16;44.38
68746;SHT31;66104;45.456;11.064;2023-03-20T12:47:28;19.10;44.00
68746;SHT31;66104;45.456;11.064;2023-03-20T12:50:28;19.12;44.26
68746;SHT31;66104;45.456;11.064;2023-03-20T12:53:15;19.12;43.87
68746;SHT31;66104;45.456;11.064;2023-03-20T12:56:19;19.12;43.66
68746;SHT31;66104;45.456;11.064;2023-03-20T12:59:17;19.15;43.45
68746;SHT31;66104;45.456;11.064;2023-03-20T13:02:11;19.14;43.75
68746;SHT31;66104;45.456;11.064;2023-03-20T13:05:08;19.18;44.07
68746;SHT31;66104;45.456;11.064;2023-03-20T13:08:05;19.27;43.78
68746;SHT31;66104;45.456;11.064;2023-03-20T13:11:12;19.33;43.21
68746;SHT31;66104;45.456;11.064;2023-03-20T13:14:00;19.35;43.09
68746;SHT31;66104;45.456;11.064;2023-03-20T13:16:47;19.40;43.08
68746;SHT31;66104;45.456;11.064;2023-03-20T13:19:34;19.46;42.93
68746;SHT31;66104;45.456;11.064;2023-03-20T13:22:21;19.52;42.68
68746;SHT31;66104;45.456;11.064;2023-03-20T13:25:10;19.53;42.42
68746;SHT31;66104;45.456;11.064;2023-03-20T13:28:05;19.39;42.58
68746;SHT31;66104;45.456;11.064;2023-03-20T13:30:55;19.41;42.97
68746;SHT31;66104;45.456;11.064;2023-03-20T13:33:46;19.50;42.45
68746;SHT31;66104;45.456;11.064;2023-03-20T13:36:40;19.52;42.22
68746;SHT31;66104;45.456;11.064;2023-03-20T13:39:54;19.57;42.53
68746;SHT31;66104;45.456;11.064;2023-03-20T13:42:46;19.60;42.02
68746;SHT31;66104;45.456;11.064;2023-03-20T13:45:30;19.47;41.89
68746;SHT31;66104;45.456;11.064;2023-03-20T13:48:16;19.34;42.39
68746;SHT31;66104;45.456;11.064;2023-03-20T13:51:06;19.36;42.49
68746;SHT31;66104;45.456;11.064;2023-03-20T13:54:03;19.44;42.69
68746;SHT31;66104;45.456;11.064;2023-03-20T13:57:03;19.44;42.51
68746;SHT31;66104;45.456;11.064;2023-03-20T13:59:52;19.47;42.44
68746;SHT31;66104;45.456;11.064;2023-03-20T14:02:40;19.45;42.54
68746;SHT31;66104;45.456;11.064;2023-03-20T14:05:47;19.42;42.84
68746;SHT31;66104;45.456;11.064;2023-03-20T14:08:30;19.39;42.76
68746;SHT31;66104;45.456;11.064;2023-03-20T14:11:14;19.33;42.95
68746;SHT31;66104;45.456;11.064;2023-03-20T14:14:05;19.28;43.09
68746;SHT31;66104;45.456;11.064;2023-03-20T14:16:50;19.12;43.18
68746;SHT31;66104;45.456;11.064;2023-03-20T14:19:43;18.94;43.59
68746;SHT31;66104;45.456;11.064;2023-03-20T14:22:23;18.88;43.85
68746;SHT31;66104;45.456;11.064;2023-03-20T14:25:12;18.82;43.81
68746;SHT31;66104;45.456;11.064;2023-03-20T14:27:54;18.83;44.20
68746;SHT31;66104;45.456;11.064;2023-03-20T14:30:52;18.91;44.50
68746;SHT31;66104;45.456;11.064;2023-03-20T14:34:07;18.93;44.60
68746;SHT31;66104;45.456;11.064;2023-03-20T14:36:59;18.91;44.31
68746;SHT31;66104;45.456;11.064;2023-03-20T14:39:58;18.82;44.22
68746;SHT31;66104;45.456;11.064;2023-03-20T14:42:48;18.87;44.47
68746;SHT31;66104;45.456;11.064;2023-03-20T14:48:23;19.01;44.18
68746;SHT31;66104;45.456;11.064;2023-03-20T14:51:10;19.09;44.16
68746;SHT31;66104;45.456;11.064;2023-03-20T14:57:16;19.23;43.93
68746;SHT31;66104;45.456;11.064;2023-03-20T15:00:23;19.28;43.83
68746;SHT31;66104;45.456;11.064;2023-03-20T15:03:08;19.31;43.80
68746;SHT31;66104;45.456;11.064;2023-03-20T15:05:49;19.35;43.67
68746;SHT31;66104;45.456;11.064;2023-03-20T15:08:36;19.36;43.64
68746;SHT31;66104;45.456;11.064;2023-03-20T15:11:23;19.34;43.67
68746;SHT31;66104;45.456;11.064;2023-03-20T15:14:00;19.30;43.81
68746;SHT31;66104;45.456;11.064;2023-03-20T15:16:41;19.26;43.98
68746;SHT31;66104;45.456;11.064;2023-03-20T15:19:28;19.26;44.07
68746;SHT31;66104;45.456;11.064;2023-03-20T15:22:13;19.17;44.30
68746;SHT31;66104;45.456;11.064;2023-03-20T15:24:52;19.12;44.76
68746;SHT31;66104;45.456;11.064;2023-03-20T15:27:30;19.10;44.82
68746;SHT31;66104;45.456;11.064;2023-03-20T15:30:09;19.06;44.72
68746;SHT31;66104;45.456;11.064;2023-03-20T15:32:54;18.98;44.69
68746;SHT31;66104;45.456;11.064;2023-03-20T15:35:30;18.84;44.86
68746;SHT31;66104;45.456;11.064;2023-03-20T15:38:09;18.72;45.09
68746;SHT31;66104;45.456;11.064;2023-03-20T15:40:49;18.61;45.42
68746;SHT31;66104;45.456;11.064;2023-03-20T15:43:25;18.57;45.90
68746;SHT31;66104;45.456;11.064;2023-03-20T15:46:03;18.54;46.00
68746;SHT31;66104;45.456;11.064;2023-03-20T15:48:49;18.51;46.05
68746;SHT31;66104;45.456;11.064;2023-03-20T15:51:28;18.46;46.40
68746;SHT31;66104;45.456;11.064;2023-03-20T15:54:05;18.44;46.49
68746;SHT31;66104;45.456;11.064;2023-03-20T15:56:48;18.42;46.75
68746;SHT31;66104;45.456;11.064;2023-03-20T15:59:28;18.39;47.41
68746;SHT31;66104;45.456;11.064;2023-03-20T16:02:09;18.33;47.60
68746;SHT31;66104;45.456;11.064;2023-03-20T16:04:51;18.27;47.47
68746;SHT31;66104;45.456;11.064;2023-03-20T16:07:28;18.24;47.47
68746;SHT31;66104;45.456;11.064;2023-03-20T16:10:14;18.22;47.64
68746;SHT31;66104;45.456;11.064;2023-03-20T16:12:57;18.18;47.89
68746;SHT31;66104;45.456;11.064;2023-03-20T16:15:37;18.15;48.08
68746;SHT31;66104;45.456;11.064;2023-03-20T16:18:17;18.10;48.79
68746;SHT31;66104;45.456;11.064;2023-03-20T16:20:55;18.02;49.77
68746;SHT31;66104;45.456;11.064;2023-03-20T16:23:37;17.93;50.80
68746;SHT31;66104;45.456;11.064;2023-03-20T16:26:16;17.75;51.48
68746;SHT31;66104;45.456;11.064;2023-03-20T16:28:56;17.62;51.73
68746;SHT31;66104;45.456;11.064;2023-03-20T16:31:35;17.53;52.08
68746;SHT31;66104;45.456;11.064;2023-03-20T16:34:32;17.46;52.45
68746;SHT31;66104;45.456;11.064;2023-03-20T16:37:21;17.40;52.59
68746;SHT31;66104;45.456;11.064;2023-03-20T16:43:06;17.32;53.19
68746;SHT31;66104;45.456;11.064;2023-03-20T16:45:51;17.28;53.31
68746;SHT31;66104;45.456;11.064;2023-03-20T16:48:36;17.24;53.45
68746;SHT31;66104;45.456;11.064;2023-03-20T16:51:16;17.24;53.61
68746;SHT31;66104;45.456;11.064;2023-03-20T16:53:57;17.20;53.71
68746;SHT31;66104;45.456;11.064;2023-03-20T16:56:34;17.18;53.83
68746;SHT31;66104;45.456;11.064;2023-03-20T16:59:15;17.13;53.98
68746;SHT31;66104;45.456;11.064;2023-03-20T17:01:59;17.07;54.13
68746;SHT31;66104;45.456;11.064;2023-03-20T17:04:42;17.03;54.35
68746;SHT31;66104;45.456;11.064;2023-03-20T17:07:24;16.97;54.47
68746;SHT31;66104;45.456;11.064;2023-03-20T17:10:11;16.91;54.67
68746;SHT31;66104;45.456;11.064;2023-03-20T17:12:57;16.82;55.00
68746;SHT31;66104;45.456;11.064;2023-03-20T17:15:35;16.74;55.39
68746;SHT31;66104;45.456;11.064;2023-03-20T17:18:13;16.67;55.87
68746;SHT31;66104;45.456;11.064;2023-03-20T17:20:50;16.62;56.15
68746;SHT31;66104;45.456;11.064;2023-03-20T17:23:27;16.56;56.45
68746;SHT31;66104;45.456;11.064;2023-03-20T17:26:04;16.49;56.79
68746;SHT31;66104;45.456;11.064;2023-03-20T17:28:43;16.40;57.20
68746;SHT31;66104;45.456;11.064;2023-03-20T17:31:20;16.31;57.51
68746;SHT31;66104;45.456;11.064;2023-03-20T17:33:56;16.25;57.74
68746;SHT31;66104;45.456;11.064;2023-03-20T17:36:34;16.19;58.06
68746;SHT31;66104;45.456;11.064;2023-03-20T17:39:16;16.11;58.37
68746;SHT31;66104;45.456;11.064;2023-03-20T17:41:54;16.03;58.97
68746;SHT31;66104;45.456;11.064;2023-03-20T17:44:30;15.94;59.63
68746;SHT31;66104;45.456;11.064;2023-03-20T17:47:08;15.84;60.33
68746;SHT31;66104;45.456;11.064;2023-03-20T17:49:51;15.75;60.94
68746;SHT31;66104;45.456;11.064;2023-03-20T17:52:27;15.70;61.44
68746;SHT31;66104;45.456;11.064;2023-03-20T17:55:06;15.64;62.02
68746;SHT31;66104;45.456;11.064;2023-03-20T17:57:44;15.57;62.60
68746;SHT31;66104;45.456;11.064;2023-03-20T18:00:22;15.51;62.89
68746;SHT31;66104;45.456;11.064;2023-03-20T18:03:00;15.46;63.18
68746;SHT31;66104;45.456;11.064;2023-03-20T18:05:37;15.42;63.25
68746;SHT31;66104;45.456;11.064;2023-03-20T18:08:15;15.42;63.39
68746;SHT31;66104;45.456;11.064;2023-03-20T18:10:53;15.40;63.41
68746;SHT31;66104;45.456;11.064;2023-03-20T18:13:30;15.37;63.61
68746;SHT31;66104;45.456;11.064;2023-03-20T18:16:10;15.35;63.71
68746;SHT31;66104;45.456;11.064;2023-03-20T18:18:52;15.34;63.89
68746;SHT31;66104;45.456;11.064;2023-03-20T18:21:28;15.36;63.95
68746;SHT31;66104;45.456;11.064;2023-03-20T18:24:09;15.36;64.18
68746;SHT31;66104;45.456;11.064;2023-03-20T18:26:46;15.36;64.28
68746;SHT31;66104;45.456;11.064;2023-03-20T18:29:23;15.36;64.47
68746;SHT31;66104;45.456;11.064;2023-03-20T18:32:01;15.35;64.54
68746;SHT31;66104;45.456;11.064;2023-03-20T18:34:37;15.35;64.52
68746;SHT31;66104;45.456;11.064;2023-03-20T18:37:15;15.38;64.45
68746;SHT31;66104;45.456;11.064;2023-03-20T18:39:53;15.37;63.12
68746;SHT31;66104;45.456;11.064;2023-03-20T18:42:31;15.36;62.40
68746;SHT31;66104;45.456;11.064;2023-03-20T18:45:09;15.33;62.15
68746;SHT31;66104;45.456;11.064;2023-03-20T18:47:49;15.31;61.81
68746;SHT31;66104;45.456;11.064;2023-03-20T18:50:27;15.27;61.58
68746;SHT31;66104;45.456;11.064;2023-03-20T18:53:06;15.21;61.38
68746;SHT31;66104;45.456;11.064;2023-03-20T18:55:43;15.15;61.13
68746;SHT31;66104;45.456;11.064;2023-03-20T18:58:21;15.07;61.01
68746;SHT31;66104;45.456;11.064;2023-03-20T19:01:00;15.02;61.00
68746;SHT31;66104;45.456;11.064;2023-03-20T19:03:39;14.95;61.23
68746;SHT31;66104;45.456;11.064;2023-03-20T19:06:18;14.88;61.30
68746;SHT31;66104;45.456;11.064;2023-03-20T19:08:54;14.81;61.29
68746;SHT31;66104;45.456;11.064;2023-03-20T19:11:32;14.74;61.39
68746;SHT31;66104;45.456;11.064;2023-03-20T19:14:11;14.71;61.40
68746;SHT31;66104;45.456;11.064;2023-03-20T19:16:47;14.64;61.44
68746;SHT31;66104;45.456;11.064;2023-03-20T19:19:24;14.58;61.42
68746;SHT31;66104;45.456;11.064;2023-03-20T19:22:02;14.52;61.52
68746;SHT31;66104;45.456;11.064;2023-03-20T19:24:56;14.41;61.77
68746;SHT31;66104;45.456;11.064;2023-03-20T19:27:34;14.33;61.80
68746;SHT31;66104;45.456;11.064;2023-03-20T19:30:15;14.26;61.91
68746;SHT31;66104;45.456;11.064;2023-03-20T19:33:02;14.22;62.02
68746;SHT31;66104;45.456;11.064;2023-03-20T19:35:38;14.20;62.11
68746;SHT31;66104;45.456;11.064;2023-03-20T19:38:31;14.21;62.11
68746;SHT31;66104;45.456;11.064;2023-03-20T19:41:08;14.22;61.99
68746;SHT31;66104;45.456;11.064;2023-03-20T19:43:48;14.22;61.90
68746;SHT31;66104;45.456;11.064;2023-03-20T19:46:25;14.19;61.83
68746;SHT31;66104;45.456;11.064;2023-03-20T19:49:17;14.14;61.93
68746;SHT31;66104;45.456;11.064;2023-03-20T19:51:58;14.13;62.09
68746;SHT31;66104;45.456;11.064;2023-03-20T19:54:35;14.07;62.14
68746;SHT31;66104;45.456;11.064;2023-03-20T19:57:29;13.99;62.35
68746;SHT31;66104;45.456;11.064;2023-03-20T20:00:07;13.95;62.40
68746;SHT31;66104;45.456;11.064;2023-03-20T20:03:15;13.93;62.39
68746;SHT31;66104;45.456;11.064;2023-03-20T20:05:54;13.93;62.30
68746;SHT31;66104;45.456;11.064;2023-03-20T20:08:32;13.91;62.30
68746;SHT31;66104;45.456;11.064;2023-03-20T20:11:16;13.86;62.40
68746;SHT31;66104;45.456;11.064;2023-03-20T20:13:55;13.83;62.43
68746;SHT31;66104;45.456;11.064;2023-03-20T20:16:36;13.78;62.50
68746;SHT31;66104;45.456;11.064;2023-03-20T20:19:16;13.79;62.43
68746;SHT31;66104;45.456;11.064;2023-03-20T20:21:56;13.77;62.45
68746;SHT31;66104;45.456;11.064;2023-03-20T20:24:52;13.72;62.57
68746;SHT31;66104;45.456;11.064;2023-03-20T20:27:29;13.67;62.68
68746;SHT31;66104;45.456;11.064;2023-03-20T20:30:08;13.65;62.72
68746;SHT31;66104;45.456;11.064;2023-03-20T20:32:49;13.65;62.62
68746;SHT31;66104;45.456;11.064;2023-03-20T20:35:33;13.65;62.50
68746;SHT31;66104;45.456;11.064;2023-03-20T20:38:29;13.64;62.50
68746;SHT31;66104;45.456;11.064;2023-03-20T20:41:19;13.61;62.43
68746;SHT31;66104;45.456;11.064;2023-03-20T20:43:57;13.58;62.42
68746;SHT31;66104;45.456;11.064;2023-03-20T20:46:44;13.56;62.41
68746;SHT31;66104;45.456;11.064;2023-03-20T20:49:22;13.53;62.50
68746;SHT31;66104;45.456;11.064;2023-03-20T20:51:58;13.49;62.70
68746;SHT31;66104;45.456;11.064;2023-03-20T20:54:34;13.47;62.81
68746;SHT31;66104;45.456;11.064;2023-03-20T20:57:11;13.44;62.94
68746;SHT31;66104;45.456;11.064;2023-03-20T20:59:49;13.40;62.99
68746;SHT31;66104;45.456;11.064;2023-03-20T21:02:28;13.38;63.00
68746;SHT31;66104;45.456;11.064;2023-03-20T21:05:10;13.38;62.98
68746;SHT31;66104;45.456;11.064;2023-03-20T21:07:48;13.38;62.99
68746;SHT31;66104;45.456;11.064;2023-03-20T21:10:27;13.37;63.00
68746;SHT31;66104;45.456;11.064;2023-03-20T21:13:05;13.35;63.00
68746;SHT31;66104;45.456;11.064;2023-03-20T21:15:42;13.32;62.91
68746;SHT31;66104;45.456;11.064;2023-03-20T21:18:27;13.30;62.91
68746;SHT31;66104;45.456;11.064;2023-03-20T21:21:07;13.29;62.93
68746;SHT31;66104;45.456;11.064;2023-03-20T21:23:44;13.29;62.91
68746;SHT31;66104;45.456;11.064;2023-03-20T21:26:23;13.25;62.99
68746;SHT31;66104;45.456;11.064;2023-03-20T21:29:00;13.21;63.02
68746;SHT31;66104;45.456;11.064;2023-03-20T21:31:37;13.18;63.16
68746;SHT31;66104;45.456;11.064;2023-03-20T21:34:14;13.09;63.26
68746;SHT31;66104;45.456;11.064;2023-03-20T21:36:52;12.91;63.50
68746;SHT31;66104;45.456;11.064;2023-03-20T21:39:50;12.80;63.85
68746;SHT31;66104;45.456;11.064;2023-03-20T21:42:26;12.78;64.01
68746;SHT31;66104;45.456;11.064;2023-03-20T21:45:06;12.77;64.11
68746;SHT31;66104;45.456;11.064;2023-03-20T21:48:05;12.74;64.11
68746;SHT31;66104;45.456;11.064;2023-03-20T21:51:03;12.64;64.31
68746;SHT31;66104;45.456;11.064;2023-03-20T21:54:01;12.58;64.58
68746;SHT31;66104;45.456;11.064;2023-03-20T21:56:58;12.54;64.71
68746;SHT31;66104;45.456;11.064;2023-03-20T21:59:54;12.55;64.69
68746;SHT31;66104;45.456;11.064;2023-03-20T22:02:52;12.56;64.77
68746;SHT31;66104;45.456;11.064;2023-03-20T22:05:39;12.58;64.75
68746;SHT31;66104;45.456;11.064;2023-03-20T22:08:40;12.57;64.62
68746;SHT31;66104;45.456;11.064;2023-03-20T22:11:38;12.57;64.60
68746;SHT31;66104;45.456;11.064;2023-03-20T22:14:36;12.55;64.68
68746;SHT31;66104;45.456;11.064;2023-03-20T22:17:33;12.51;64.44
68746;SHT31;66104;45.456;11.064;2023-03-20T22:20:30;12.47;64.58
68746;SHT31;66104;45.456;11.064;2023-03-20T22:23:28;12.42;64.68
68746;SHT31;66104;45.456;11.064;2023-03-20T22:26:26;12.38;64.59
68746;SHT31;66104;45.456;11.064;2023-03-20T22:29:22;12.34;64.48
68746;SHT31;66104;45.456;11.064;2023-03-20T22:32:19;12.31;64.49
68746;SHT31;66104;45.456;11.064;2023-03-20T22:35:16;12.29;64.40
68746;SHT31;66104;45.456;11.064;2023-03-20T22:38:13;12.28;64.40
68746;SHT31;66104;45.456;11.064;2023-03-20T22:41:11;12.26;64.42
68746;SHT31;66104;45.456;11.064;2023-03-20T22:44:10;12.20;64.48
68746;SHT31;66104;45.456;11.064;2023-03-20T22:47:07;12.10;64.76
68746;SHT31;66104;45.456;11.064;2023-03-20T22:49:45;12.05;64.88
68746;SHT31;66104;45.456;11.064;2023-03-20T22:52:21;12.06;64.81
68746;SHT31;66104;45.456;11.064;2023-03-20T22:55:16;12.11;64.73
68746;SHT31;66104;45.456;11.064;2023-03-20T22:57:54;12.15;64.70
68746;SHT31;66104;45.456;11.064;2023-03-20T23:00:36;12.18;64.63
68746;SHT31;66104;45.456;11.064;2023-03-20T23:03:13;12.22;64.47
68746;SHT31;66104;45.456;11.064;2023-03-20T23:06:13;12.25;64.30
68746;SHT31;66104;45.456;11.064;2023-03-20T23:08:56;12.28;64.36
68746;SHT31;66104;45.456;11.064;2023-03-20T23:11:42;12.30;64.20
68746;SHT31;66104;45.456;11.064;2023-03-20T23:14:18;12.31;64.16
68746;SHT31;66104;45.456;11.064;2023-03-20T23:17:00;12.33;64.03
68746;SHT31;66104;45.456;11.064;2023-03-20T23:19:38;12.31;64.10
68746;SHT31;66104;45.456;11.064;2023-03-20T23:22:26;12.32;63.96
68746;SHT31;66104;45.456;11.064;2023-03-20T23:25:05;12.34;63.88
68746;SHT31;66104;45.456;11.064;2023-03-20T23:28:05;12.34;63.88
68746;SHT31;66104;45.456;11.064;2023-03-20T23:30:42;12.34;63.88
68746;SHT31;66104;45.456;11.064;2023-03-20T23:33:37;12.36;63.80
68746;SHT31;66104;45.456;11.064;2023-03-20T23:36:14;12.36;63.80
68746;SHT31;66104;45.456;11.064;2023-03-20T23:39:05;12.37;63.82
68746;SHT31;66104;45.456;11.064;2023-03-20T23:41:44;12.37;63.90
68746;SHT31;66104;45.456;11.064;2023-03-20T23:44:40;12.34;63.90
68746;SHT31;66104;45.456;11.064;2023-03-20T23:47:26;12.32;63.97
68746;SHT31;66104;45.456;11.064;2023-03-20T23:50:12;12.30;64.08
68746;SHT31;66104;45.456;11.064;2023-03-20T23:53:11;12.28;64.17
68746;SHT31;66104;45.456;11.064;2023-03-20T23:55:53;12.20;64.59
68746;SHT31;66104;45.456;11.064;2023-03-20T23:58:30;12.07;64.78
